createdAt,value
2022-09-01T00:01:44.154Z,16.63
2022-09-01T00:04:13.981Z,16.65
2022-09-01T00:06:41.121Z,16.52
2022-09-01T00:09:11.412Z,16.70
2022-09-01T00:11:40.351Z,16.84
2022-09-01T00:14:23.761Z,16.83
2022-09-01T00:16:55.732Z,16.69
2022-09-01T00:19:24.547Z,16.73
2022-09-01T00:21:51.237Z,16.67
2022-09-01T00:24:19.334Z,16.62
2022-09-01T00:26:46.494Z,16.56
2022-09-01T00:29:13.281Z,16.54
2022-09-01T00:31:40.657Z,16.54
2022-09-01T00:34:08.304Z,16.60
2022-09-01T00:36:35.209Z,16.46
2022-09-01T00:39:02.316Z,16.54
2022-09-01T00:41:31.997Z,16.56
2022-09-01T00:44:01.978Z,16.61
2022-09-01T00:46:40.209Z,16.46
2022-09-01T00:49:35.858Z,16.51
2022-09-01T00:52:08.799Z,16.67
2022-09-01T00:54:40.261Z,16.56
2022-09-01T00:57:09.845Z,16.47
2022-09-01T00:59:43.348Z,16.56
2022-09-01T01:02:11.314Z,16.48
2022-09-01T01:04:38.746Z,16.57
2022-09-01T01:07:08.979Z,16.47
2022-09-01T01:09:41.555Z,16.37
2022-09-01T01:12:18.163Z,16.49
2022-09-01T01:14:50.420Z,16.39
2022-09-01T01:17:19.344Z,16.43
2022-09-01T01:20:11.574Z,16.38
2022-09-01T01:23:09.173Z,16.35
2022-09-01T01:25:44.477Z,16.27
2022-09-01T01:28:26.858Z,16.26
2022-09-01T01:31:15.756Z,16.26
2022-09-01T01:33:45.739Z,16.24
2022-09-01T01:36:19.342Z,16.25
2022-09-01T01:38:49.045Z,16.22
2022-09-01T01:41:19.695Z,16.28
2022-09-01T01:43:48.304Z,16.29
2022-09-01T01:46:15.687Z,16.24
2022-09-01T01:48:42.886Z,16.25
2022-09-01T01:51:12.043Z,16.23
2022-09-01T01:53:39.559Z,16.11
2022-09-01T01:56:06.938Z,16.05
2022-09-01T01:58:35.130Z,16.08
2022-09-01T02:01:03.774Z,16.13
2022-09-01T02:03:38.614Z,16.20
2022-09-01T02:06:11.937Z,16.34
2022-09-01T02:08:40.849Z,16.42
2022-09-01T02:11:08.239Z,16.27
2022-09-01T02:13:35.249Z,16.25
2022-09-01T02:16:07.841Z,16.22
2022-09-01T02:18:37.358Z,16.24
2022-09-01T02:21:12.759Z,16.13
2022-09-01T02:23:41.967Z,16.23
2022-09-01T02:26:18.519Z,16.24
2022-09-01T02:28:54.330Z,16.21
2022-09-01T02:31:23.157Z,16.18
2022-09-01T02:33:51.079Z,16.18
2022-09-01T02:36:19.325Z,16.19
2022-09-01T02:38:53.076Z,16.15
2022-09-01T02:41:23.135Z,16.12
2022-09-01T02:43:50.753Z,16.14
2022-09-01T02:46:17.625Z,16.12
2022-09-01T02:48:46.410Z,16.16
2022-09-01T02:51:16.673Z,16.26
2022-09-01T02:53:46.011Z,16.14
2022-09-01T02:56:14.361Z,16.07
2022-09-01T02:58:46.528Z,16.03
2022-09-01T03:01:40.117Z,15.93
2022-09-01T03:04:09.755Z,15.88
2022-09-01T03:06:37.605Z,15.79
2022-09-01T03:09:08.624Z,15.90
2022-09-01T03:11:43.187Z,16.01
2022-09-01T03:14:09.918Z,15.82
2022-09-01T03:16:38.163Z,15.86
2022-09-01T03:19:09.018Z,15.72
2022-09-01T03:21:39.882Z,15.78
2022-09-01T03:24:09.127Z,15.79
2022-09-01T03:26:36.283Z,15.71
2022-09-01T03:29:04.023Z,15.84
2022-09-01T03:31:31.487Z,15.72
2022-09-01T03:34:00.647Z,15.64
2022-09-01T03:36:28.521Z,15.59
2022-09-01T03:38:55.995Z,15.70
2022-09-01T03:41:25.589Z,15.50
2022-09-01T03:43:58.635Z,15.38
2022-09-01T03:46:27.895Z,15.42
2022-09-01T03:48:58.890Z,15.30
2022-09-01T03:51:27.302Z,15.29
2022-09-01T03:53:55.271Z,15.28
2022-09-01T03:56:27.443Z,15.34
2022-09-01T03:58:56.796Z,15.21
2022-09-01T04:01:25.368Z,15.24
2022-09-01T04:03:53.016Z,15.30
2022-09-01T04:06:24.103Z,15.33
2022-09-01T04:08:57.813Z,15.38
2022-09-01T04:11:25.339Z,15.37
2022-09-01T04:13:52.687Z,15.46
2022-09-01T04:16:41.438Z,15.44
2022-09-01T04:19:20.045Z,15.43
2022-09-01T04:21:50.561Z,15.51
2022-09-01T04:24:19.307Z,15.49
2022-09-01T04:26:50.943Z,15.39
2022-09-01T04:29:19.421Z,15.48
2022-09-01T04:31:49.306Z,15.41
2022-09-01T04:34:16.470Z,15.46
2022-09-01T04:36:44.880Z,15.41
2022-09-01T04:39:13.326Z,15.47
2022-09-01T04:41:50.717Z,15.48
2022-09-01T04:44:19.394Z,15.39
2022-09-01T04:46:48.033Z,15.37
2022-09-01T04:49:19.391Z,15.41
2022-09-01T04:51:53.361Z,15.47
2022-09-01T04:54:22.651Z,15.39
2022-09-01T04:56:51.371Z,15.44
2022-09-01T04:59:21.699Z,15.33
2022-09-01T05:01:50.626Z,15.23
2022-09-01T05:04:24.518Z,15.29
2022-09-01T05:06:57.088Z,15.39
2022-09-01T05:09:25.250Z,15.43
2022-09-01T05:11:52.980Z,15.39
2022-09-01T05:14:20.609Z,15.35
2022-09-01T05:16:48.409Z,15.45
2022-09-01T05:19:20.964Z,15.51
2022-09-01T05:21:49.310Z,15.69
2022-09-01T05:24:21.710Z,15.69
2022-09-01T05:26:48.842Z,15.79
2022-09-01T05:29:17.614Z,15.78
2022-09-01T05:31:47.039Z,15.91
2022-09-01T05:34:26.439Z,16.11
2022-09-01T05:36:55.586Z,16.07
2022-09-01T05:39:22.166Z,15.91
2022-09-01T05:41:49.573Z,16.16
2022-09-01T05:44:17.053Z,16.29
2022-09-01T05:46:44.621Z,16.21
2022-09-01T05:49:16.906Z,16.35
2022-09-01T05:51:50.520Z,16.38
2022-09-01T05:54:25.403Z,16.41
2022-09-01T05:56:53.670Z,16.33
2022-09-01T05:59:25.137Z,16.44
2022-09-01T06:01:53.746Z,16.48
2022-09-01T06:04:21.075Z,16.57
2022-09-01T06:07:06.886Z,16.59
2022-09-01T06:09:38.628Z,16.55
2022-09-01T06:12:06.951Z,16.93
2022-09-01T06:14:34.263Z,16.97
2022-09-01T06:17:01.126Z,17.24
2022-09-01T06:19:30.040Z,17.28
2022-09-01T06:21:58.070Z,17.27
2022-09-01T06:24:24.857Z,17.30
2022-09-01T06:26:51.402Z,17.31
2022-09-01T06:29:20.462Z,17.36
2022-09-01T06:31:51.932Z,17.37
2022-09-01T06:34:19.681Z,17.39
2022-09-01T06:36:50.340Z,17.23
2022-09-01T06:39:20.465Z,17.34
2022-09-01T06:41:53.221Z,17.55
2022-09-01T06:44:23.429Z,17.36
2022-09-01T06:46:51.738Z,17.73
2022-09-01T06:49:21.389Z,17.88
2022-09-01T06:51:51.792Z,17.76
2022-09-01T06:54:21.080Z,17.93
2022-09-01T06:56:51.740Z,17.87
2022-09-01T06:59:19.776Z,18.03
2022-09-01T07:01:49.127Z,17.99
2022-09-01T07:04:20.250Z,17.94
2022-09-01T07:09:47.565Z,18.21
2022-09-01T07:12:26.996Z,18.02
2022-09-01T07:17:42.849Z,18.00
2022-09-01T07:20:27.166Z,18.14
2022-09-01T07:23:03.989Z,17.90
2022-09-01T07:26:00.621Z,17.87
2022-09-01T07:28:20.353Z,17.86
2022-09-01T07:30:53.213Z,18.45
2022-09-01T07:36:26.982Z,18.14
2022-09-01T07:44:29.083Z,18.77
2022-09-01T07:52:31.563Z,19.04
2022-09-01T07:54:58.246Z,19.29
2022-09-01T07:57:24.841Z,19.39
2022-09-01T07:59:55.496Z,19.56
2022-09-01T08:02:22.566Z,19.19
2022-09-01T08:04:49.286Z,19.57
2022-09-01T08:07:16.430Z,19.83
2022-09-01T08:09:44.242Z,19.54
2022-09-01T08:12:11.790Z,20.03
2022-09-01T08:14:38.611Z,20.18
2022-09-01T08:19:53.589Z,19.98
2022-09-01T08:22:25.552Z,19.92
2022-09-01T08:24:53.367Z,20.32
2022-09-01T08:27:20.540Z,20.69
2022-09-01T08:29:48.874Z,20.48
2022-09-01T08:32:15.772Z,20.50
2022-09-01T08:34:43.742Z,20.81
2022-09-01T08:37:10.289Z,20.92
2022-09-01T08:39:36.897Z,20.70
2022-09-01T08:42:37.698Z,20.09
2022-09-01T08:45:21.672Z,20.68
2022-09-01T08:48:15.346Z,21.27
2022-09-01T08:50:37.901Z,21.44
2022-09-01T08:53:15.979Z,21.25
2022-09-01T08:55:47.453Z,20.95
2022-09-01T08:58:17.864Z,20.82
2022-09-01T09:00:54.890Z,20.98
2022-09-01T09:03:49.779Z,21.64
2022-09-01T09:06:29.921Z,21.50
2022-09-01T09:08:59.866Z,21.53
2022-09-01T09:11:50.376Z,21.07
2022-09-01T09:14:32.255Z,21.21
2022-09-01T09:16:59.778Z,20.85
2022-09-01T09:19:45.575Z,21.21
2022-09-01T09:22:18.211Z,21.55
2022-09-01T09:25:11.057Z,21.18
2022-09-01T09:27:43.436Z,22.17
2022-09-01T09:30:27.114Z,22.01
2022-09-01T09:35:54.278Z,22.33
2022-09-01T09:38:28.910Z,22.21
2022-09-01T09:41:18.241Z,22.22
2022-09-01T09:44:05.815Z,22.65
2022-09-01T09:46:32.424Z,22.91
2022-09-01T09:49:32.593Z,23.11
2022-09-01T09:52:03.241Z,22.08
2022-09-01T09:54:35.292Z,22.70
2022-09-01T09:57:16.097Z,22.43
2022-09-01T09:59:58.802Z,22.21
2022-09-01T10:02:37.426Z,21.52
2022-09-01T10:05:22.669Z,21.59
2022-09-01T10:07:49.833Z,21.00
2022-09-01T10:10:39.771Z,20.54
2022-09-01T10:13:14.007Z,20.19
2022-09-01T10:15:49.217Z,20.56
2022-09-01T10:18:28.396Z,20.44
2022-09-01T10:21:04.457Z,20.27
2022-09-01T10:23:34.712Z,20.15
2022-09-01T10:26:15.337Z,19.98
2022-09-01T10:28:56.670Z,20.34
2022-09-01T10:31:24.037Z,20.52
2022-09-01T10:33:58.619Z,20.27
2022-09-01T10:36:25.635Z,20.31
2022-09-01T10:38:54.499Z,20.31
2022-09-01T10:42:00.806Z,20.49
2022-09-01T10:44:34.376Z,20.51
2022-09-01T10:47:14.666Z,20.58
2022-09-01T10:49:46.934Z,20.51
2022-09-01T10:52:43.447Z,20.63
2022-09-01T10:55:25.245Z,20.58
2022-09-01T10:58:08.540Z,20.34
2022-09-01T11:03:51.507Z,20.51
2022-09-01T11:07:11.713Z,20.87
2022-09-01T11:09:42.567Z,20.83
2022-09-01T11:12:29.238Z,20.94
2022-09-01T11:15:14.570Z,21.35
2022-09-01T11:17:50.488Z,21.21
2022-09-01T11:20:29.471Z,21.03
2022-09-01T11:23:27.726Z,21.23
2022-09-01T11:26:19.286Z,20.89
2022-09-01T11:28:47.039Z,20.88
2022-09-01T11:31:25.080Z,20.88
2022-09-01T11:34:03.164Z,21.08
2022-09-01T11:36:47.206Z,21.20
2022-09-01T11:39:17.955Z,21.44
2022-09-01T11:42:10.929Z,21.51
2022-09-01T11:44:37.629Z,21.14
2022-09-01T11:47:17.125Z,21.19
2022-09-01T11:50:04.905Z,21.73
2022-09-01T11:52:38.085Z,21.59
2022-09-01T11:55:06.843Z,21.63
2022-09-01T11:57:36.671Z,21.70
2022-09-01T12:00:10.727Z,21.49
2022-09-01T12:02:45.541Z,21.81
2022-09-01T12:05:38.978Z,22.07
2022-09-01T12:08:18.302Z,21.95
2022-09-01T12:10:50.703Z,22.16
2022-09-01T12:13:23.667Z,22.25
2022-09-01T12:16:17.049Z,22.65
2022-09-01T12:18:51.875Z,22.31
2022-09-01T12:21:28.560Z,22.15
2022-09-01T12:24:20.187Z,22.24
2022-09-01T12:26:49.640Z,22.22
2022-09-01T12:29:17.670Z,22.60
2022-09-01T12:31:50.894Z,21.74
2022-09-01T12:34:25.750Z,21.78
2022-09-01T12:37:11.394Z,21.80
2022-09-01T12:39:44.730Z,22.02
2022-09-01T12:42:27.442Z,22.27
2022-09-01T12:45:02.522Z,21.65
2022-09-01T12:47:38.363Z,21.84
2022-09-01T12:50:12.787Z,21.88
2022-09-01T12:52:48.563Z,22.24
2022-09-01T12:58:10.595Z,22.13
2022-09-01T13:00:56.170Z,22.12
2022-09-01T13:03:23.360Z,22.12
2022-09-01T13:05:52.515Z,21.98
2022-09-01T13:08:22.363Z,22.24
2022-09-01T13:10:53.354Z,22.02
2022-09-01T13:13:22.031Z,22.27
2022-09-01T13:15:51.541Z,22.02
2022-09-01T13:18:23.105Z,22.48
2022-09-01T13:20:51.000Z,22.39
2022-09-01T13:23:17.839Z,22.37
2022-09-01T13:25:44.630Z,22.36
2022-09-01T13:28:11.462Z,22.60
2022-09-01T13:30:39.080Z,22.65
2022-09-01T13:33:23.215Z,22.80
2022-09-01T13:35:54.137Z,22.52
2022-09-01T13:38:21.573Z,22.83
2022-09-01T13:40:50.239Z,22.68
2022-09-01T13:43:22.680Z,22.78
2022-09-01T13:45:51.421Z,22.74
2022-09-01T13:48:18.348Z,22.34
2022-09-01T13:53:36.624Z,22.71
2022-09-01T13:56:03.460Z,23.03
2022-09-01T13:58:30.093Z,23.04
2022-09-01T14:00:59.941Z,22.77
2022-09-01T14:03:26.749Z,22.69
2022-09-01T14:05:53.954Z,22.42
2022-09-01T14:08:22.876Z,22.49
2022-09-01T14:10:52.059Z,22.87
2022-09-01T14:13:23.840Z,22.96
2022-09-01T14:15:50.791Z,23.08
2022-09-01T14:18:17.991Z,23.06
2022-09-01T14:20:50.966Z,23.14
2022-09-01T14:23:19.784Z,22.80
2022-09-01T14:25:49.371Z,22.94
2022-09-01T14:28:20.377Z,23.22
2022-09-01T14:30:49.010Z,23.40
2022-09-01T14:33:16.742Z,23.76
2022-09-01T14:35:47.506Z,23.48
2022-09-01T14:38:15.008Z,23.49
2022-09-01T14:40:42.763Z,23.07
2022-09-01T14:43:13.089Z,23.25
2022-09-01T14:45:47.488Z,23.41
2022-09-01T14:48:17.557Z,23.43
2022-09-01T14:50:48.924Z,23.87
2022-09-01T14:53:15.811Z,23.95
2022-09-01T14:55:44.126Z,24.09
2022-09-01T14:58:11.298Z,25.68
2022-09-01T15:00:42.197Z,27.53
2022-09-01T15:03:09.792Z,28.81
2022-09-01T15:05:39.868Z,26.76
2022-09-01T15:08:08.162Z,25.58
2022-09-01T15:10:35.278Z,25.27
2022-09-01T15:13:02.576Z,25.32
2022-09-01T15:15:30.447Z,25.18
2022-09-01T15:17:57.515Z,24.57
2022-09-01T15:20:43.307Z,24.70
2022-09-01T15:23:10.375Z,25.73
2022-09-01T15:25:37.111Z,25.63
2022-09-01T15:28:04.713Z,27.33
2022-09-01T15:30:32.217Z,29.41
2022-09-01T15:32:59.181Z,30.38
2022-09-01T15:35:28.734Z,30.85
2022-09-01T15:37:56.086Z,31.70
2022-09-01T15:40:24.176Z,32.61
2022-09-01T15:42:51.158Z,34.60
2022-09-01T15:45:20.087Z,35.00
2022-09-01T15:47:50.525Z,35.10
2022-09-01T15:50:21.515Z,34.38
2022-09-01T15:52:58.669Z,35.45
2022-09-01T15:55:41.392Z,34.78
2022-09-01T15:58:10.152Z,35.96
2022-09-01T16:00:36.842Z,36.82
2022-09-01T16:03:05.945Z,34.88
2022-09-01T16:05:36.960Z,36.77
2022-09-01T16:08:08.333Z,37.78
2022-09-01T16:10:36.627Z,36.69
2022-09-01T16:13:04.663Z,36.07
2022-09-01T16:15:32.547Z,34.81
2022-09-01T16:18:24.821Z,37.20
2022-09-01T16:20:57.395Z,35.48
2022-09-01T16:23:32.674Z,35.44
2022-09-01T16:26:00.311Z,37.07
2022-09-01T16:28:30.346Z,34.83
2022-09-01T16:31:08.082Z,34.19
2022-09-01T16:36:28.992Z,33.95
2022-09-01T16:39:02.738Z,31.65
2022-09-01T16:41:43.932Z,29.18
2022-09-01T16:44:27.062Z,27.17
2022-09-01T16:47:25.712Z,25.39
2022-09-01T16:50:18.398Z,24.59
2022-09-01T16:53:04.041Z,23.97
2022-09-01T16:55:57.414Z,23.77
2022-09-01T16:58:47.915Z,23.71
2022-09-01T17:01:52.443Z,23.24
2022-09-01T17:04:37.276Z,22.79
2022-09-01T17:07:13.958Z,22.82
2022-09-01T17:09:51.338Z,22.74
2022-09-01T17:12:29.793Z,22.58
2022-09-01T17:15:19.993Z,22.38
2022-09-01T17:18:22.244Z,22.31
2022-09-01T17:20:58.405Z,22.16
2022-09-01T17:23:33.848Z,21.89
2022-09-01T17:26:04.603Z,21.79
2022-09-01T17:28:38.009Z,21.61
2022-09-01T17:31:27.278Z,21.49
2022-09-01T17:34:14.302Z,21.48
2022-09-01T17:36:50.035Z,21.24
2022-09-01T17:39:45.747Z,21.21
2022-09-01T17:42:52.456Z,21.16
2022-09-01T17:45:30.648Z,20.93
2022-09-01T17:48:18.029Z,20.68
2022-09-01T17:53:34.790Z,20.27
2022-09-01T17:56:09.954Z,20.22
2022-09-01T17:58:54.984Z,20.04
2022-09-01T18:01:21.504Z,19.93
2022-09-01T18:03:47.996Z,19.72
2022-09-01T18:06:37.674Z,19.54
2022-09-01T18:09:06.229Z,19.37
2022-09-01T18:11:32.959Z,19.27
2022-09-01T18:14:09.047Z,19.15
2022-09-01T18:17:15.072Z,19.03
2022-09-01T18:19:45.607Z,18.98
2022-09-01T18:22:16.859Z,18.93
2022-09-01T18:24:52.210Z,18.76
2022-09-01T18:27:19.164Z,18.66
2022-09-01T18:29:51.758Z,18.63
2022-09-01T18:32:38.961Z,18.55
2022-09-01T18:35:08.402Z,18.45
2022-09-01T18:37:53.340Z,18.40
2022-09-01T18:41:01.320Z,18.26
2022-09-01T18:43:40.926Z,18.09
2022-09-01T18:46:33.904Z,18.03
2022-09-01T18:49:16.832Z,17.79
2022-09-01T18:51:46.386Z,17.68
2022-09-01T18:54:22.511Z,17.72
2022-09-01T18:57:07.041Z,17.61
2022-09-01T19:00:00.664Z,17.57
2022-09-01T19:02:45.574Z,17.41
2022-09-01T19:06:08.838Z,17.40
2022-09-01T19:08:50.627Z,17.28
2022-09-01T19:11:22.706Z,17.19
2022-09-01T19:14:19.292Z,17.21
2022-09-01T19:16:55.996Z,17.16
2022-09-01T19:19:37.787Z,17.13
2022-09-01T19:22:04.983Z,17.08
2022-09-01T19:24:47.123Z,16.93
2022-09-01T19:27:24.243Z,16.87
2022-09-01T19:29:57.763Z,16.85
2022-09-01T19:32:28.801Z,16.84
2022-09-01T19:35:14.067Z,16.78
2022-09-01T19:37:42.686Z,16.66
2022-09-01T19:40:10.318Z,16.56
2022-09-01T19:43:17.896Z,16.52
2022-09-01T19:45:53.308Z,16.48
2022-09-01T19:48:29.351Z,16.46
2022-09-01T19:51:20.814Z,16.50
2022-09-01T19:54:09.071Z,16.47
2022-09-01T19:57:05.283Z,16.35
2022-09-01T19:59:52.952Z,16.26
2022-09-01T20:02:30.159Z,16.30
2022-09-01T20:05:33.731Z,16.40
2022-09-01T20:08:13.392Z,16.32
2022-09-01T20:11:06.224Z,16.27
2022-09-01T20:13:39.088Z,16.25
2022-09-01T20:16:12.388Z,16.12
2022-09-01T20:18:50.200Z,16.04
2022-09-01T20:21:21.447Z,16.04
2022-09-01T20:23:57.908Z,15.97
2022-09-01T20:27:00.244Z,16.07
2022-09-01T20:29:40.490Z,15.94
2022-09-01T20:32:08.636Z,15.88
2022-09-01T20:34:42.516Z,15.80
2022-09-01T20:37:42.351Z,15.89
2022-09-01T20:40:15.036Z,15.82
2022-09-01T20:43:24.148Z,15.86
2022-09-01T20:45:51.063Z,15.84
2022-09-01T20:48:28.278Z,15.77
2022-09-01T20:51:07.873Z,15.88
2022-09-01T20:53:53.130Z,15.89
2022-09-01T20:56:34.768Z,15.84
2022-09-01T20:59:09.142Z,15.85
2022-09-01T21:01:57.458Z,15.85
2022-09-01T21:04:56.278Z,15.90
2022-09-01T21:07:35.899Z,15.86
2022-09-01T21:10:13.425Z,15.77
2022-09-01T21:12:57.320Z,15.74
2022-09-01T21:15:46.497Z,15.86
2022-09-01T21:18:44.166Z,15.80
2022-09-01T21:21:19.966Z,15.81
2022-09-01T21:23:46.761Z,15.93
2022-09-01T21:26:13.920Z,15.93
2022-09-01T21:28:42.994Z,15.84
2022-09-01T21:31:11.793Z,15.81
2022-09-01T21:33:38.632Z,15.71
2022-09-01T21:36:05.589Z,15.62
2022-09-01T21:38:32.324Z,15.60
2022-09-01T21:41:00.726Z,15.66
2022-09-01T21:43:36.504Z,15.49
2022-09-01T21:46:03.297Z,15.54
2022-09-01T21:48:31.062Z,15.50
2022-09-01T21:50:57.839Z,15.38
2022-09-01T21:53:24.391Z,15.32
2022-09-01T21:55:51.164Z,15.29
2022-09-01T21:58:18.641Z,15.22
2022-09-01T22:00:45.259Z,15.24
2022-09-01T22:03:12.705Z,15.15
2022-09-01T22:05:44.112Z,14.99
2022-09-01T22:08:13.291Z,14.93
2022-09-01T22:10:46.547Z,14.98
2022-09-01T22:13:13.922Z,15.04
2022-09-01T22:15:48.791Z,14.87
2022-09-01T22:18:16.603Z,14.88
2022-09-01T22:20:44.617Z,14.77
2022-09-01T22:23:12.106Z,14.76
2022-09-01T22:25:45.835Z,14.75
2022-09-01T22:28:14.095Z,14.79
2022-09-01T22:30:46.665Z,14.75
2022-09-01T22:33:14.444Z,14.84
2022-09-01T22:35:47.059Z,14.93
2022-09-01T22:38:13.841Z,14.89
2022-09-01T22:40:51.217Z,14.92
2022-09-01T22:43:19.008Z,14.93
2022-09-01T22:45:47.307Z,14.92
2022-09-01T22:48:15.117Z,14.86
2022-09-01T22:50:43.270Z,14.81
2022-09-01T22:53:11.170Z,14.69
2022-09-01T22:55:43.463Z,14.72
2022-09-01T22:58:11.092Z,14.70
2022-09-01T23:00:38.354Z,14.69
2022-09-01T23:03:05.394Z,14.68
2022-09-01T23:05:32.148Z,14.65
2022-09-01T23:07:59.092Z,14.72
2022-09-01T23:10:26.190Z,14.72
2022-09-01T23:12:52.829Z,14.66
2022-09-01T23:15:19.450Z,14.62
2022-09-01T23:17:46.036Z,14.53
2022-09-01T23:20:14.507Z,14.57
2022-09-01T23:22:43.118Z,14.52
2022-09-01T23:25:11.878Z,14.42
2022-09-01T23:27:39.338Z,14.44
2022-09-01T23:30:08.186Z,14.40
2022-09-01T23:32:35.098Z,14.43
2022-09-01T23:35:02.287Z,14.41
2022-09-01T23:37:29.304Z,14.39
2022-09-01T23:39:56.306Z,14.39
2022-09-01T23:42:23.670Z,14.45
2022-09-01T23:44:50.341Z,14.70
2022-09-01T23:47:17.002Z,14.69
2022-09-01T23:49:43.580Z,14.67
2022-09-01T23:52:10.183Z,14.74
2022-09-01T23:54:36.706Z,14.89
2022-09-01T23:57:03.508Z,14.90
2022-09-01T23:59:30.043Z,14.77
